createdAt,value
2019-05-07T00:01:03.264Z,100889.02
2019-05-07T00:02:18.651Z,100892.48
2019-05-07T00:03:23.080Z,100892.05
2019-05-07T00:04:27.534Z,100891.63
2019-05-07T00:05:33.146Z,100894.23
2019-05-07T00:06:37.785Z,100898.60
2019-05-07T00:07:42.570Z,100892.49
2019-05-07T00:08:47.425Z,100888.14
2019-05-07T00:09:52.559Z,100892.50
2019-05-07T00:10:57.086Z,100894.66
2019-05-07T00:12:05.049Z,100889.86
2019-05-07T00:13:08.939Z,100887.27
2019-05-07T00:14:13.372Z,100884.19
2019-05-07T00:15:17.819Z,100883.78
2019-05-07T00:16:22.632Z,100882.01
2019-05-07T00:17:27.036Z,100883.34
2019-05-07T00:18:32.168Z,100882.02
2019-05-07T00:19:36.909Z,100882.02
2019-05-07T00:20:42.328Z,100888.13
2019-05-07T00:21:47.026Z,100878.09
2019-05-07T00:22:53.381Z,100878.52
2019-05-07T00:23:57.589Z,100882.89
2019-05-07T00:25:03.129Z,100881.16
2019-05-07T00:26:07.650Z,100885.93
2019-05-07T00:27:13.073Z,100877.65
2019-05-07T00:28:17.796Z,100889.84
2019-05-07T00:29:22.559Z,100880.69
2019-05-07T00:30:27.437Z,100886.80
2019-05-07T00:31:32.619Z,100878.97
2019-05-07T00:32:37.080Z,100889.00
2019-05-07T00:33:43.233Z,100894.63
2019-05-07T00:34:49.294Z,100892.02
2019-05-07T00:35:55.388Z,100890.72
2019-05-07T00:37:06.858Z,100889.44
2019-05-07T00:38:12.949Z,100892.03
2019-05-07T00:39:19.044Z,100895.06
2019-05-07T00:40:32.128Z,100887.66
2019-05-07T00:41:47.461Z,100888.53
2019-05-07T00:43:08.791Z,100888.55
2019-05-07T00:44:14.992Z,100899.01
2019-05-07T00:45:23.743Z,100892.47
2019-05-07T00:46:28.380Z,100897.26
2019-05-07T00:47:33.214Z,100896.84
2019-05-07T00:48:37.994Z,100901.61
2019-05-07T00:49:42.799Z,100895.94
2019-05-07T00:50:48.890Z,100895.06
2019-05-07T00:51:53.324Z,100902.89
2019-05-07T00:52:57.754Z,100898.99
2019-05-07T00:54:04.636Z,100896.37
2019-05-07T00:55:09.075Z,100892.91
2019-05-07T00:56:13.582Z,100897.27
2019-05-07T00:57:18.012Z,100897.69
2019-05-07T00:58:26.569Z,100902.02
2019-05-07T00:59:28.576Z,100901.17
2019-05-07T01:00:33.449Z,100904.64
2019-05-07T01:01:38.271Z,100904.63
2019-05-07T01:02:43.161Z,100899.83
2019-05-07T01:03:48.058Z,100902.89
2019-05-07T01:04:53.351Z,100906.80
2019-05-07T01:05:57.973Z,100901.14
2019-05-07T01:07:02.824Z,100903.78
2019-05-07T01:08:07.352Z,100908.14
2019-05-07T01:09:12.422Z,100902.03
2019-05-07T01:10:17.165Z,100908.55
2019-05-07T01:11:22.649Z,100905.07
2019-05-07T01:12:27.596Z,100903.77
2019-05-07T01:13:32.385Z,100904.19
2019-05-07T01:14:39.251Z,100907.25
2019-05-07T01:15:43.683Z,100911.13
2019-05-07T01:16:48.216Z,100911.14
2019-05-07T01:17:52.649Z,100909.84
2019-05-07T01:18:57.098Z,100908.98
2019-05-07T01:20:02.901Z,100908.53
2019-05-07T01:21:08.699Z,100909.40
2019-05-07T01:22:13.136Z,100909.41
2019-05-07T01:23:17.581Z,100918.13
2019-05-07T01:24:23.364Z,100915.05
2019-05-07T01:25:27.866Z,100910.28
2019-05-07T01:26:33.033Z,100913.75
2019-05-07T01:27:38.570Z,100917.69
2019-05-07T01:29:02.963Z,100915.08
2019-05-07T01:30:08.060Z,100915.05
2019-05-07T01:31:12.911Z,100912.00
2019-05-07T01:32:22.201Z,100911.14
2019-05-07T01:33:33.227Z,100913.29
2019-05-07T01:34:39.097Z,100906.77
2019-05-07T01:35:45.172Z,100911.52
2019-05-07T01:36:52.234Z,100908.92
2019-05-07T01:37:56.437Z,100911.52
2019-05-07T01:39:02.657Z,100903.69
2019-05-07T01:40:09.126Z,100908.48
2019-05-07T01:41:13.561Z,100914.13
2019-05-07T01:42:19.087Z,100908.89
2019-05-07T01:43:23.521Z,100908.00
2019-05-07T01:44:27.956Z,100908.43
2019-05-07T01:45:45.424Z,100906.70
2019-05-07T01:46:39.094Z,100907.56
2019-05-07T01:47:43.913Z,100906.25
2019-05-07T01:48:48.732Z,100905.39
2019-05-07T01:49:55.189Z,100909.31
2019-05-07T01:50:59.877Z,100908.43
2019-05-07T01:52:04.728Z,100907.58
2019-05-07T01:53:09.161Z,100906.70
2019-05-07T01:54:13.598Z,100907.16
2019-05-07T01:55:18.033Z,100901.47
2019-05-07T01:56:23.030Z,100903.23
2019-05-07T01:57:28.014Z,100901.05
2019-05-07T01:58:33.287Z,100908.01
2019-05-07T01:59:37.863Z,100904.08
2019-05-07T02:00:42.660Z,100906.28
2019-05-07T02:01:48.437Z,100906.70
2019-05-07T02:02:54.535Z,100903.66
2019-05-07T02:04:02.325Z,100905.39
2019-05-07T02:05:09.308Z,100904.08
2019-05-07T02:06:18.063Z,100907.54
2019-05-07T02:07:24.143Z,100908.87
2019-05-07T02:08:45.387Z,100910.17
2019-05-07T02:09:57.162Z,100911.91
2019-05-07T02:11:03.238Z,100905.38
2019-05-07T02:12:09.676Z,100905.38
2019-05-07T02:13:14.504Z,100904.05
2019-05-07T02:14:19.219Z,100903.62
2019-05-07T02:15:23.658Z,100900.59
2019-05-07T02:16:28.451Z,100902.30
2019-05-07T02:17:32.886Z,100899.26
2019-05-07T02:18:37.345Z,100897.50
2019-05-07T02:19:42.503Z,100898.37
2019-05-07T02:20:47.094Z,100901.37
2019-05-07T02:21:52.786Z,100900.06
2019-05-07T02:22:57.567Z,100897.48
2019-05-07T02:24:03.341Z,100902.67
2019-05-07T02:25:08.016Z,100903.12
2019-05-07T02:26:13.409Z,100900.09
2019-05-07T02:27:17.969Z,100897.48
2019-05-07T02:28:23.100Z,100902.27
2019-05-07T02:29:27.534Z,100897.94
2019-05-07T02:30:34.904Z,100901.82
2019-05-07T02:31:38.175Z,100903.11
2019-05-07T02:32:43.476Z,100904.41
2019-05-07T02:33:48.047Z,100894.85
2019-05-07T02:34:54.555Z,100900.92
2019-05-07T02:35:58.798Z,100900.05
2019-05-07T02:37:05.944Z,100898.27
2019-05-07T02:38:13.835Z,100906.09
2019-05-07T02:39:23.795Z,100899.14
2019-05-07T02:40:34.146Z,100898.70
2019-05-07T02:41:38.748Z,100895.63
2019-05-07T02:42:44.274Z,100891.72
2019-05-07T02:43:49.023Z,100895.66
2019-05-07T02:45:13.356Z,100896.02
2019-05-07T02:46:36.582Z,100893.47
2019-05-07T02:47:43.749Z,100891.72
2019-05-07T02:48:53.713Z,100891.26
2019-05-07T02:50:03.247Z,100895.63
2019-05-07T02:51:09.462Z,100894.78
2019-05-07T02:52:15.539Z,100892.56
2019-05-07T02:53:24.317Z,100892.99
2019-05-07T02:54:32.927Z,100890.41
2019-05-07T02:55:43.517Z,100893.45
2019-05-07T02:56:47.092Z,100893.45
2019-05-07T02:57:54.015Z,100896.06
2019-05-07T02:58:57.660Z,100900.84
2019-05-07T03:00:04.819Z,100897.78
2019-05-07T03:01:09.722Z,100896.91
2019-05-07T03:02:14.157Z,100895.63
2019-05-07T03:03:18.607Z,100893.02
2019-05-07T03:04:24.981Z,100906.95
2019-05-07T03:05:29.342Z,100900.84
2019-05-07T03:06:34.263Z,100899.97
2019-05-07T03:07:39.154Z,100899.13
2019-05-07T03:08:44.230Z,100893.45
2019-05-07T03:09:49.089Z,100897.78
2019-05-07T03:10:54.188Z,100905.62
2019-05-07T03:11:58.635Z,100896.45
2019-05-07T03:13:03.475Z,100903.00
2019-05-07T03:14:09.092Z,100899.55
2019-05-07T03:15:13.967Z,100899.13
2019-05-07T03:16:35.287Z,100901.30
2019-05-07T03:17:25.015Z,100901.73
2019-05-07T03:18:33.143Z,100900.42
2019-05-07T03:19:37.539Z,100894.78
2019-05-07T03:20:49.444Z,100899.97
2019-05-07T03:21:54.633Z,100895.63
2019-05-07T03:23:03.056Z,100897.36
2019-05-07T03:24:13.823Z,100894.78
2019-05-07T03:25:24.410Z,100895.63
2019-05-07T03:26:34.105Z,100892.17
2019-05-07T03:27:38.037Z,100899.55
2019-05-07T03:28:53.206Z,100901.70
2019-05-07T03:29:58.162Z,100899.52
2019-05-07T03:31:09.717Z,100900.85
2019-05-07T03:32:38.367Z,100901.67
2019-05-07T03:33:55.887Z,100900.37
2019-05-07T03:34:59.510Z,100900.82
2019-05-07T03:36:07.373Z,100899.09
2019-05-07T03:37:13.747Z,100905.16
2019-05-07T03:38:18.216Z,100902.98
2019-05-07T03:39:23.989Z,100904.77
2019-05-07T03:40:32.685Z,100902.55
2019-05-07T03:41:36.008Z,100902.09
2019-05-07T03:42:40.453Z,100903.41
2019-05-07T03:43:45.061Z,100898.19
2019-05-07T03:44:53.682Z,100907.31
2019-05-07T03:46:05.259Z,100904.70
2019-05-07T03:47:23.533Z,100907.31
2019-05-07T03:48:28.539Z,100908.20
2019-05-07T03:49:34.754Z,100909.08
2019-05-07T03:50:39.210Z,100909.53
2019-05-07T03:51:44.395Z,100912.11
2019-05-07T03:52:49.033Z,100911.27
2019-05-07T03:53:54.091Z,100909.08
2019-05-07T03:54:58.768Z,100912.96
2019-05-07T03:56:04.195Z,100914.72
2019-05-07T03:57:11.277Z,100914.75
2019-05-07T03:58:15.138Z,100913.02
2019-05-07T03:59:19.594Z,100915.63
2019-05-07T04:00:24.492Z,100917.33
2019-05-07T04:01:28.956Z,100912.97
2019-05-07T04:02:33.516Z,100914.30
2019-05-07T04:03:39.079Z,100919.52
2019-05-07T04:04:43.563Z,100922.13
2019-05-07T04:05:47.993Z,100917.33
2019-05-07T04:06:53.792Z,100916.88
2019-05-07T04:07:58.507Z,100917.33
2019-05-07T04:09:03.470Z,100919.91
2019-05-07T04:10:10.402Z,100923.41
2019-05-07T04:11:15.988Z,100926.44
2019-05-07T04:12:23.675Z,100926.86
2019-05-07T04:13:27.417Z,100929.92
2019-05-07T04:14:34.572Z,100929.50
2019-05-07T04:15:38.145Z,100924.64
2019-05-07T04:16:44.099Z,100925.13
2019-05-07T04:17:48.933Z,100925.62
2019-05-07T04:18:53.388Z,100929.08
2019-05-07T04:19:58.185Z,100928.68
2019-05-07T04:21:03.595Z,100932.95
2019-05-07T04:22:08.680Z,100932.56
2019-05-07T04:23:14.301Z,100927.77
2019-05-07T04:24:29.317Z,100934.33
2019-05-07T04:25:35.401Z,100931.72
2019-05-07T04:26:44.211Z,100935.23
2019-05-07T04:27:56.404Z,100935.66
2019-05-07T04:29:08.383Z,100938.30
2019-05-07T04:30:13.223Z,100936.99
2019-05-07T04:31:17.706Z,100933.53
2019-05-07T04:32:23.807Z,100938.78
2019-05-07T04:33:33.088Z,100939.23
2019-05-07T04:34:54.792Z,100941.89
2019-05-07T04:36:03.810Z,100935.77
2019-05-07T04:37:08.269Z,100944.95
2019-05-07T04:38:13.767Z,100942.82
2019-05-07T04:39:18.437Z,100943.22
2019-05-07T04:40:24.053Z,100945.00
2019-05-07T04:41:28.702Z,100942.38
2019-05-07T04:42:34.237Z,100946.20
2019-05-07T04:43:38.682Z,100950.17
2019-05-07T04:44:43.818Z,100949.79
2019-05-07T04:45:48.347Z,100948.94
2019-05-07T04:46:53.311Z,100953.30
2019-05-07T04:47:57.921Z,100955.03
2019-05-07T04:49:03.717Z,100952.50
2019-05-07T04:50:13.974Z,100951.58
2019-05-07T04:51:19.311Z,100950.73
2019-05-07T04:52:33.532Z,100953.37
2019-05-07T04:53:36.989Z,100955.94
2019-05-07T04:54:43.731Z,100956.83
2019-05-07T04:55:47.863Z,100953.81
2019-05-07T04:56:53.209Z,100959.45
2019-05-07T04:57:59.267Z,100963.81
2019-05-07T04:59:03.892Z,100960.34
2019-05-07T05:00:09.859Z,100965.16
2019-05-07T05:01:16.046Z,100963.84
2019-05-07T05:02:23.553Z,100963.45
2019-05-07T05:03:28.689Z,100959.96
2019-05-07T05:04:34.882Z,100964.32
2019-05-07T05:05:39.263Z,100959.95
2019-05-07T05:06:53.022Z,100965.20
2019-05-07T05:07:57.486Z,100962.10
2019-05-07T05:09:02.992Z,100961.20
2019-05-07T05:10:08.058Z,100963.88
2019-05-07T05:11:12.890Z,100969.97
2019-05-07T05:12:17.414Z,100968.67
2019-05-07T05:13:23.470Z,100969.11
2019-05-07T05:14:28.186Z,100970.87
2019-05-07T05:15:32.911Z,100972.20
2019-05-07T05:16:37.350Z,100977.92
2019-05-07T05:17:49.992Z,100970.08
2019-05-07T05:18:47.955Z,100972.72
2019-05-07T05:19:52.586Z,100969.23
2019-05-07T05:21:02.761Z,100977.06
2019-05-07T05:22:14.730Z,100970.11
2019-05-07T05:23:37.023Z,100975.31
2019-05-07T05:24:43.099Z,100973.57
2019-05-07T05:25:47.532Z,100972.69
2019-05-07T05:26:52.620Z,100975.30
2019-05-07T05:27:58.298Z,100980.54
2019-05-07T05:29:02.753Z,100976.19
2019-05-07T05:30:09.876Z,100978.37
2019-05-07T05:31:14.326Z,100972.27
2019-05-07T05:32:18.750Z,100977.94
2019-05-07T05:33:23.616Z,100970.95
2019-05-07T05:34:28.402Z,100975.32
2019-05-07T05:35:32.837Z,100970.12
2019-05-07T05:36:37.569Z,100976.20
2019-05-07T05:37:43.018Z,100978.84
2019-05-07T05:38:47.574Z,100974.46
2019-05-07T05:40:05.640Z,100979.67
2019-05-07T05:40:58.169Z,100975.34
2019-05-07T05:42:04.312Z,100977.52
2019-05-07T05:43:27.210Z,100981.85
2019-05-07T05:44:33.339Z,100980.99
2019-05-07T05:45:48.392Z,100975.74
2019-05-07T05:46:53.251Z,100984.02
2019-05-07T05:48:04.559Z,100979.67
2019-05-07T05:49:03.809Z,100980.56
2019-05-07T05:50:13.399Z,100975.32
2019-05-07T05:51:34.091Z,100977.06
2019-05-07T05:52:42.361Z,100983.18
2019-05-07T05:53:52.384Z,100979.69
2019-05-07T05:54:58.625Z,100977.50
2019-05-07T05:56:07.301Z,100981.00
2019-05-07T05:57:13.513Z,100977.08
2019-05-07T05:58:32.551Z,100975.77
2019-05-07T05:59:49.033Z,100979.68
2019-05-07T06:01:06.194Z,100973.53
2019-05-07T06:02:28.158Z,100977.92
2019-05-07T06:03:37.226Z,100977.52
2019-05-07T06:04:58.614Z,100975.31
2019-05-07T06:06:06.467Z,100972.23
2019-05-07T06:07:15.003Z,100982.70
2019-05-07T06:08:32.303Z,100977.46
2019-05-07T06:09:43.433Z,100977.41
2019-05-07T06:11:05.085Z,100979.13
2019-05-07T06:12:27.780Z,100982.25
2019-05-07T06:13:36.518Z,100977.47
2019-05-07T06:14:42.989Z,100980.03
2019-05-07T06:16:05.108Z,100980.89
2019-05-07T06:17:13.881Z,100981.74
2019-05-07T06:18:35.911Z,100982.63
2019-05-07T06:19:42.482Z,100981.67
2019-05-07T06:20:48.556Z,100981.70
2019-05-07T06:21:57.562Z,100981.77
2019-05-07T06:23:15.961Z,100984.81
2019-05-07T06:24:31.939Z,100990.85
2019-05-07T06:25:36.715Z,100994.31
2019-05-07T06:26:42.539Z,100991.36
2019-05-07T06:27:48.012Z,100994.41
2019-05-07T06:28:52.450Z,100994.80
2019-05-07T06:29:56.881Z,100994.70
2019-05-07T06:31:02.201Z,100993.33
2019-05-07T06:32:12.117Z,100994.92
2019-05-07T06:33:17.041Z,100993.92
2019-05-07T06:34:22.044Z,100963.36
2019-05-07T06:35:26.857Z,100993.56
2019-05-07T06:36:33.025Z,100995.91
2019-05-07T06:37:37.441Z,100991.58
2019-05-07T06:38:46.456Z,100991.14
2019-05-07T06:39:52.990Z,100994.80
2019-05-07T06:41:02.670Z,100992.82
2019-05-07T06:42:12.651Z,100993.19
2019-05-07T06:43:32.570Z,100993.19
2019-05-07T06:44:37.368Z,100995.70
2019-05-07T06:45:46.579Z,100988.67
2019-05-07T06:46:52.660Z,100993.79
2019-05-07T06:47:57.555Z,100996.83
2019-05-07T06:49:02.269Z,100996.05
2019-05-07T06:50:07.646Z,100993.91
2019-05-07T06:51:13.074Z,100993.91
2019-05-07T06:52:17.508Z,100996.18
2019-05-07T06:53:22.273Z,100994.42
2019-05-07T06:54:26.755Z,100995.66
2019-05-07T06:55:32.351Z,100991.28
2019-05-07T06:56:37.001Z,100997.66
2019-05-07T06:57:42.577Z,100988.64
2019-05-07T06:58:49.828Z,100993.76
2019-05-07T07:00:14.065Z,100990.11
2019-05-07T07:01:35.129Z,100993.37
2019-05-07T07:02:47.823Z,100989.87
2019-05-07T07:04:02.848Z,100996.00
2019-05-07T07:05:12.474Z,100992.16
2019-05-07T07:06:18.608Z,100990.72
2019-05-07T07:07:32.022Z,100988.84
2019-05-07T07:08:48.995Z,100988.84
2019-05-07T07:09:55.070Z,100975.80
2019-05-07T07:11:02.624Z,100975.80
2019-05-07T07:12:25.551Z,100989.80
2019-05-07T07:13:28.855Z,100989.27
2019-05-07T07:14:33.359Z,100990.67
2019-05-07T07:15:37.886Z,100996.03
2019-05-07T07:16:42.417Z,100985.23
2019-05-07T07:17:46.981Z,100991.17
2019-05-07T07:18:54.948Z,100989.46
2019-05-07T07:19:59.223Z,100987.53
2019-05-07T07:21:04.058Z,100992.24
2019-05-07T07:22:08.518Z,100988.40
2019-05-07T07:23:13.263Z,100980.89
2019-05-07T07:24:17.706Z,100994.53
2019-05-07T07:25:23.025Z,100978.17
2019-05-07T07:26:28.734Z,100987.34
2019-05-07T07:27:33.168Z,100982.05
2019-05-07T07:28:37.971Z,100964.50
2019-05-07T07:29:45.042Z,100970.48
2019-05-07T07:31:07.633Z,100987.69
2019-05-07T07:32:13.734Z,100987.69
2019-05-07T07:33:19.808Z,100982.77
2019-05-07T07:34:24.531Z,100982.77
2019-05-07T07:35:28.966Z,100991.88
2019-05-07T07:36:35.103Z,100990.77
2019-05-07T07:37:43.086Z,100988.97
2019-05-07T07:38:47.697Z,100982.97
2019-05-07T07:39:53.770Z,100970.13
2019-05-07T07:41:01.610Z,100988.42
2019-05-07T07:42:07.780Z,100982.39
2019-05-07T07:43:12.981Z,100981.80
2019-05-07T07:44:18.564Z,100983.05
2019-05-07T07:45:27.048Z,100990.75
2019-05-07T07:46:33.050Z,100989.63
2019-05-07T07:47:38.803Z,100982.50
2019-05-07T07:48:43.652Z,100985.98
2019-05-07T07:49:48.465Z,100981.68
2019-05-07T07:50:52.915Z,100983.82
2019-05-07T07:51:57.371Z,100974.39
2019-05-07T07:53:02.508Z,100979.36
2019-05-07T07:54:07.121Z,100986.56
2019-05-07T07:55:12.739Z,100987.83
2019-05-07T07:56:48.908Z,100980.88
2019-05-07T07:58:02.677Z,100984.88
2019-05-07T07:59:14.980Z,100985.66
2019-05-07T08:00:36.043Z,100983.97
2019-05-07T08:01:44.796Z,100989.64
2019-05-07T08:02:52.874Z,100982.30
2019-05-07T08:03:57.024Z,100984.87
2019-05-07T08:05:02.098Z,100980.89
2019-05-07T08:06:06.684Z,100982.49
2019-05-07T08:07:12.358Z,100983.67
2019-05-07T08:08:17.045Z,100976.15
2019-05-07T08:09:24.133Z,100979.30
2019-05-07T08:10:28.336Z,100987.03
2019-05-07T08:11:32.781Z,100982.70
2019-05-07T08:12:37.237Z,100979.19
2019-05-07T08:13:42.453Z,100978.67
2019-05-07T08:14:47.080Z,100973.23
2019-05-07T08:15:51.993Z,100975.54
2019-05-07T08:16:56.751Z,100965.80
2019-05-07T08:18:02.802Z,100968.94
2019-05-07T08:19:19.369Z,100965.32
2019-05-07T08:20:15.208Z,100970.38
2019-05-07T08:21:22.526Z,100967.22
2019-05-07T08:22:26.165Z,100970.22
2019-05-07T08:23:31.979Z,100960.13
2019-05-07T08:24:36.513Z,100963.40
2019-05-07T08:25:47.878Z,100969.64
2019-05-07T08:26:52.317Z,100968.72
2019-05-07T08:27:58.243Z,100969.30
2019-05-07T08:29:03.062Z,100968.61
2019-05-07T08:30:11.855Z,100974.44
2019-05-07T08:31:32.080Z,100970.18
2019-05-07T08:32:38.194Z,100968.90
2019-05-07T08:33:46.942Z,100973.52
2019-05-07T08:34:58.903Z,100972.78
2019-05-07T08:36:14.751Z,100971.39
2019-05-07T08:37:19.451Z,100972.70
2019-05-07T08:38:24.223Z,100971.17
2019-05-07T08:39:28.689Z,100969.02
2019-05-07T08:40:33.131Z,100966.88
2019-05-07T08:41:37.567Z,100966.25
2019-05-07T08:42:42.052Z,100968.49
2019-05-07T08:43:48.822Z,100969.92
2019-05-07T08:45:12.001Z,100969.37
2019-05-07T08:46:33.084Z,100968.35
2019-05-07T08:47:39.168Z,100965.09
2019-05-07T08:48:44.991Z,100968.13
2019-05-07T08:49:49.792Z,100967.28
2019-05-07T08:50:54.408Z,100964.03
2019-05-07T08:52:03.404Z,100965.57
2019-05-07T08:53:07.687Z,100962.45
2019-05-07T08:54:12.430Z,100972.37
2019-05-07T08:55:16.845Z,100963.84
2019-05-07T08:56:22.452Z,100966.88
2019-05-07T08:57:27.003Z,100969.58
2019-05-07T08:58:31.821Z,100966.45
2019-05-07T08:59:36.683Z,100967.72
2019-05-07T09:00:41.775Z,100970.11
2019-05-07T09:01:47.620Z,100971.64
2019-05-07T09:02:52.473Z,100969.43
2019-05-07T09:03:58.479Z,100962.45
2019-05-07T09:05:03.205Z,100970.11
2019-05-07T09:06:12.188Z,100967.41
2019-05-07T09:07:17.696Z,100961.42
2019-05-07T09:08:22.148Z,100964.39
2019-05-07T09:09:26.658Z,100967.13
2019-05-07T09:10:32.466Z,100968.31
2019-05-07T09:11:37.470Z,100971.00
2019-05-07T09:12:42.933Z,100971.32
2019-05-07T09:13:47.645Z,100965.97
2019-05-07T09:14:52.930Z,100963.83
2019-05-07T09:15:57.704Z,100969.95
2019-05-07T09:17:02.823Z,100962.05
2019-05-07T09:18:07.487Z,100963.84
2019-05-07T09:19:12.875Z,100964.72
2019-05-07T09:20:17.993Z,100970.42
2019-05-07T09:21:22.825Z,100958.09
2019-05-07T09:22:27.216Z,100960.59
2019-05-07T09:23:32.013Z,100958.70
2019-05-07T09:24:36.825Z,100958.55
2019-05-07T09:25:43.336Z,100952.23
2019-05-07T09:27:07.798Z,100962.25
2019-05-07T09:28:12.236Z,100957.09
2019-05-07T09:29:24.117Z,100959.65
2019-05-07T09:30:32.932Z,100957.11
2019-05-07T09:31:52.520Z,100957.30
2019-05-07T09:33:02.525Z,100960.62
2019-05-07T09:34:07.408Z,100958.23
2019-05-07T09:35:22.872Z,100963.63
2019-05-07T09:36:32.226Z,100964.55
2019-05-07T09:37:36.802Z,100961.26
2019-05-07T09:38:43.040Z,100961.94
2019-05-07T09:39:47.392Z,100959.73
2019-05-07T09:40:52.498Z,100960.20
2019-05-07T09:41:57.143Z,100959.02
2019-05-07T09:43:02.492Z,100948.08
2019-05-07T09:44:08.504Z,100948.66
2019-05-07T09:45:13.305Z,100949.50
2019-05-07T09:46:20.091Z,100952.81
2019-05-07T09:47:24.216Z,100946.73
2019-05-07T09:48:28.719Z,100958.50
2019-05-07T09:49:33.173Z,100947.48
2019-05-07T09:50:37.606Z,100950.96
2019-05-07T09:51:42.684Z,100952.42
2019-05-07T09:52:47.261Z,100956.13
2019-05-07T09:53:52.018Z,100950.67
2019-05-07T09:54:56.642Z,100956.13
2019-05-07T09:56:02.212Z,100959.17
2019-05-07T09:57:22.811Z,100952.45
2019-05-07T09:58:14.351Z,100950.47
2019-05-07T09:59:18.856Z,100958.27
2019-05-07T10:00:24.860Z,100950.03
2019-05-07T10:01:29.358Z,100951.36
2019-05-07T10:02:35.147Z,100943.63
2019-05-07T10:03:39.654Z,100942.64
2019-05-07T10:04:44.481Z,100946.42
2019-05-07T10:05:49.019Z,100946.46
2019-05-07T10:06:53.454Z,100941.59
2019-05-07T10:07:57.894Z,100936.59
2019-05-07T10:09:02.838Z,100936.13
2019-05-07T10:10:09.441Z,100938.60
2019-05-07T10:11:15.813Z,100945.13
2019-05-07T10:12:33.684Z,100936.80
2019-05-07T10:13:52.373Z,100938.00
2019-05-07T10:14:57.244Z,100939.91
2019-05-07T10:16:03.845Z,100932.69
2019-05-07T10:17:09.540Z,100933.73
2019-05-07T10:18:15.419Z,100935.45
2019-05-07T10:19:22.094Z,100933.98
2019-05-07T10:20:26.348Z,100938.90
2019-05-07T10:21:31.120Z,100935.52
2019-05-07T10:22:35.700Z,100937.30
2019-05-07T10:23:41.696Z,100934.66
2019-05-07T10:24:46.268Z,100935.38
2019-05-07T10:25:51.754Z,100930.68
2019-05-07T10:26:56.513Z,100938.50
2019-05-07T10:28:01.949Z,100930.70
2019-05-07T10:29:06.673Z,100926.52
2019-05-07T10:30:12.884Z,100924.93
2019-05-07T10:31:17.611Z,100922.86
2019-05-07T10:32:22.048Z,100930.05
2019-05-07T10:33:26.489Z,100927.68
2019-05-07T10:34:31.210Z,100918.94
2019-05-07T10:35:35.735Z,100924.42
2019-05-07T10:36:42.037Z,100928.13
2019-05-07T10:37:46.439Z,100925.95
2019-05-07T10:38:52.026Z,100922.05
2019-05-07T10:39:56.585Z,100928.36
2019-05-07T10:41:02.821Z,100930.69
2019-05-07T10:42:07.360Z,100936.13
2019-05-07T10:43:11.864Z,100933.50
2019-05-07T10:44:17.721Z,100940.36
2019-05-07T10:45:42.027Z,100937.38
2019-05-07T10:46:48.028Z,100936.75
2019-05-07T10:48:02.416Z,100938.84
2019-05-07T10:49:23.025Z,100943.48
2019-05-07T10:50:36.441Z,100938.67
2019-05-07T10:51:35.281Z,100938.57
2019-05-07T10:52:42.374Z,100940.55
2019-05-07T10:53:46.301Z,100936.33
2019-05-07T10:54:59.679Z,100933.57
2019-05-07T10:55:57.640Z,100934.20
2019-05-07T10:57:03.131Z,100934.91
2019-05-07T10:58:07.578Z,100932.73
2019-05-07T10:59:12.311Z,100934.61
2019-05-07T11:00:19.315Z,100929.61
2019-05-07T11:01:25.821Z,100923.28
2019-05-07T11:02:32.503Z,100925.27
2019-05-07T11:03:37.413Z,100919.66
2019-05-07T11:04:43.581Z,100926.31
2019-05-07T11:05:48.381Z,100920.63
2019-05-07T11:06:52.837Z,100922.14
2019-05-07T11:07:57.272Z,100919.22
2019-05-07T11:09:01.715Z,100917.11
2019-05-07T11:10:08.216Z,100918.89
2019-05-07T11:11:12.890Z,100919.69
2019-05-07T11:12:17.325Z,100922.13
2019-05-07T11:13:21.943Z,100918.48
2019-05-07T11:14:26.657Z,100913.91
2019-05-07T11:15:32.631Z,100911.62
2019-05-07T11:16:39.040Z,100912.39
2019-05-07T11:18:02.690Z,100904.17
2019-05-07T11:19:07.274Z,100910.44
2019-05-07T11:20:13.225Z,100909.08
2019-05-07T11:21:19.365Z,100917.78
2019-05-07T11:22:23.827Z,100915.67
2019-05-07T11:23:28.265Z,100920.34
2019-05-07T11:24:32.695Z,100921.23
2019-05-07T11:25:37.413Z,100919.81
2019-05-07T11:26:42.083Z,100911.96
2019-05-07T11:27:46.893Z,100919.31
2019-05-07T11:28:51.716Z,100912.73
2019-05-07T11:29:56.160Z,100911.60
2019-05-07T11:31:02.084Z,100914.87
2019-05-07T11:32:07.195Z,100907.52
2019-05-07T11:33:12.808Z,100909.40
2019-05-07T11:34:17.552Z,100915.62
2019-05-07T11:35:23.021Z,100912.94
2019-05-07T11:36:27.587Z,100907.86
2019-05-07T11:37:32.040Z,100909.64
2019-05-07T11:38:36.830Z,100904.32
2019-05-07T11:39:42.781Z,100910.39
2019-05-07T11:40:47.256Z,100906.38
2019-05-07T11:41:55.908Z,100908.27
2019-05-07T11:43:12.889Z,100904.70
2019-05-07T11:44:18.961Z,100906.29
2019-05-07T11:45:25.053Z,100906.21
2019-05-07T11:46:34.385Z,100903.89
2019-05-07T11:47:38.945Z,100904.39
2019-05-07T11:48:45.066Z,100901.36
2019-05-07T11:50:07.392Z,100897.87
2019-05-07T11:51:19.650Z,100900.25
2019-05-07T11:52:25.844Z,100903.20
2019-05-07T11:53:32.694Z,100901.75
2019-05-07T11:54:38.598Z,100897.77
2019-05-07T11:55:43.022Z,100896.30
2019-05-07T11:56:48.424Z,100901.55
2019-05-07T11:57:53.749Z,100896.56
2019-05-07T11:58:58.186Z,100897.25
2019-05-07T12:00:03.499Z,100894.92
2019-05-07T12:01:09.846Z,100885.83
2019-05-07T12:02:14.292Z,100891.52
2019-05-07T12:03:19.082Z,100888.42
2019-05-07T12:04:23.522Z,100884.87
2019-05-07T12:05:27.960Z,100886.17
2019-05-07T12:06:32.467Z,100878.88
2019-05-07T12:07:36.906Z,100878.74
2019-05-07T12:08:48.211Z,100884.86
2019-05-07T12:09:47.513Z,100879.06
2019-05-07T12:10:52.236Z,100877.86
2019-05-07T12:11:56.739Z,100883.03
2019-05-07T12:13:02.453Z,100886.92
2019-05-07T12:14:07.534Z,100879.61
2019-05-07T12:15:12.548Z,100875.24
2019-05-07T12:16:16.989Z,100871.88
2019-05-07T12:17:22.414Z,100869.22
2019-05-07T12:18:26.970Z,100881.73
2019-05-07T12:19:33.070Z,100873.63
2019-05-07T12:20:37.730Z,100866.89
2019-05-07T12:21:42.370Z,100876.69
2019-05-07T12:22:47.460Z,100879.19
2019-05-07T12:23:52.513Z,100866.80
2019-05-07T12:24:57.034Z,100865.54
2019-05-07T12:26:02.302Z,100865.61
2019-05-07T12:27:08.058Z,100863.00
2019-05-07T12:28:13.217Z,100866.26
2019-05-07T12:29:17.956Z,100859.93
2019-05-07T12:30:32.629Z,100871.14
2019-05-07T12:31:52.377Z,100877.35
2019-05-07T12:33:02.266Z,100867.52
2019-05-07T12:34:14.895Z,100861.61
2019-05-07T12:35:19.410Z,100865.58
2019-05-07T12:36:23.920Z,100860.28
2019-05-07T12:37:28.356Z,100868.52
2019-05-07T12:38:32.794Z,100867.58
2019-05-07T12:39:37.256Z,100860.91
2019-05-07T12:40:42.030Z,100863.77
2019-05-07T12:41:46.483Z,100859.70
2019-05-07T12:42:52.416Z,100854.94
2019-05-07T12:43:57.491Z,100848.01